createdAt,value
2023-05-22T00:00:18.135Z,564.00
2023-05-22T00:01:18.209Z,563.00
2023-05-22T00:02:18.286Z,559.00
2023-05-22T00:03:18.329Z,565.00
2023-05-22T00:04:18.383Z,562.00
2023-05-22T00:05:18.643Z,560.00
2023-05-22T00:06:18.497Z,567.00
2023-05-22T00:07:18.551Z,565.00
2023-05-22T00:08:18.628Z,562.00
2023-05-22T00:09:18.741Z,559.00
2023-05-22T00:10:18.748Z,562.00
2023-05-22T00:11:18.850Z,563.00
2023-05-22T00:12:18.878Z,567.00
2023-05-22T00:13:18.949Z,570.00
2023-05-22T00:14:19.054Z,561.00
2023-05-22T00:15:19.080Z,569.00
2023-05-22T00:16:19.147Z,564.00
2023-05-22T00:17:19.274Z,563.00
2023-05-22T00:18:19.245Z,566.00
2023-05-22T00:19:19.327Z,565.00
2023-05-22T00:20:19.374Z,564.00
2023-05-22T00:21:19.478Z,565.00
2023-05-22T00:22:19.491Z,561.00
2023-05-22T00:23:19.571Z,563.00
2023-05-22T00:24:19.642Z,563.00
2023-05-22T00:25:19.711Z,563.00
2023-05-22T00:26:19.750Z,565.00
2023-05-22T00:27:19.813Z,563.00
2023-05-22T00:28:19.839Z,565.00
2023-05-22T00:29:19.915Z,561.00
2023-05-22T00:30:19.978Z,565.00
2023-05-22T00:31:20.093Z,566.00
2023-05-22T00:32:20.109Z,562.00
2023-05-22T00:33:20.175Z,562.00
2023-05-22T00:34:20.301Z,565.00
2023-05-22T00:35:20.329Z,561.00
2023-05-22T00:36:20.375Z,561.00
2023-05-22T00:37:20.441Z,566.00
2023-05-22T00:38:20.523Z,566.00
2023-05-22T00:39:20.522Z,563.00
2023-05-22T00:40:20.601Z,560.00
2023-05-22T00:41:20.678Z,563.00
2023-05-22T00:42:20.717Z,568.00
2023-05-22T00:43:20.753Z,565.00
2023-05-22T00:44:20.870Z,563.00
2023-05-22T00:45:20.873Z,563.00
2023-05-22T00:46:20.953Z,564.00
2023-05-22T00:47:21.034Z,567.00
2023-05-22T00:48:21.084Z,558.00
2023-05-22T00:49:21.139Z,561.00
2023-05-22T00:50:21.182Z,565.00
2023-05-22T00:51:21.283Z,563.00
2023-05-22T00:52:21.317Z,566.00
2023-05-22T00:53:21.367Z,563.00
2023-05-22T00:54:21.418Z,564.00
2023-05-22T00:55:21.494Z,564.00
2023-05-22T00:56:21.571Z,562.00
2023-05-22T00:57:21.550Z,561.00
2023-05-22T00:58:21.591Z,559.00
2023-05-22T00:59:21.613Z,564.00
2023-05-22T01:00:21.662Z,563.00
2023-05-22T01:01:21.757Z,561.00
2023-05-22T01:02:21.784Z,560.00
2023-05-22T01:03:21.917Z,567.00
2023-05-22T01:04:21.854Z,567.00
2023-05-22T01:05:21.927Z,560.00
2023-05-22T01:06:21.977Z,564.00
2023-05-22T01:07:22.019Z,559.00
2023-05-22T01:08:22.121Z,558.00
2023-05-22T01:09:22.054Z,561.00
2023-05-22T01:10:22.119Z,560.00
2023-05-22T01:11:22.155Z,561.00
2023-05-22T01:12:22.193Z,558.00
2023-05-22T01:13:22.222Z,561.00
2023-05-22T01:14:22.269Z,560.00
2023-05-22T01:15:22.311Z,564.00
2023-05-22T01:16:22.404Z,559.00
2023-05-22T01:17:22.403Z,561.00
2023-05-22T01:18:22.432Z,561.00
2023-05-22T01:19:22.509Z,558.00
2023-05-22T01:20:22.534Z,566.00
2023-05-22T01:21:22.565Z,557.00
2023-05-22T01:22:22.616Z,558.00
2023-05-22T01:23:22.636Z,557.00
2023-05-22T01:24:22.650Z,557.00
2023-05-22T01:25:22.718Z,560.00
2023-05-22T01:26:22.794Z,561.00
2023-05-22T01:27:22.786Z,560.00
2023-05-22T01:28:22.842Z,559.00
2023-05-22T01:29:22.866Z,558.00
2023-05-22T01:30:22.894Z,558.00
2023-05-22T01:31:22.927Z,561.00
2023-05-22T01:32:23.000Z,558.00
2023-05-22T01:33:23.038Z,557.00
2023-05-22T01:34:23.004Z,559.00
2023-05-22T01:35:23.025Z,559.00
2023-05-22T01:36:23.056Z,561.00
2023-05-22T01:37:23.094Z,558.00
2023-05-22T01:38:23.082Z,559.00
2023-05-22T01:39:23.095Z,560.00
2023-05-22T01:40:23.132Z,560.00
2023-05-22T01:41:23.145Z,558.00
2023-05-22T01:42:23.189Z,556.00
2023-05-22T01:43:23.228Z,557.00
2023-05-22T01:44:23.256Z,559.00
2023-05-22T01:45:23.237Z,558.00
2023-05-22T01:46:23.387Z,558.00
2023-05-22T01:47:23.369Z,561.00
2023-05-22T01:48:23.292Z,557.00
2023-05-22T01:49:23.330Z,557.00
2023-05-22T01:50:23.382Z,556.00
2023-05-22T01:51:23.406Z,559.00
2023-05-22T01:52:23.419Z,558.00
2023-05-22T01:53:23.397Z,558.00
2023-05-22T01:54:23.406Z,558.00
2023-05-22T01:55:23.501Z,552.00
2023-05-22T01:56:23.461Z,555.00
2023-05-22T01:57:23.461Z,560.00
2023-05-22T01:58:23.433Z,558.00
2023-05-22T01:59:23.471Z,556.00
2023-05-22T02:00:23.495Z,555.00
2023-05-22T02:01:23.541Z,556.00
2023-05-22T02:02:23.676Z,550.00
2023-05-22T02:03:23.680Z,553.00
2023-05-22T02:04:23.474Z,556.00
2023-05-22T02:05:23.480Z,556.00
2023-05-22T02:06:23.511Z,551.00
2023-05-22T02:07:23.516Z,552.00
2023-05-22T02:08:23.489Z,554.00
2023-05-22T02:09:23.481Z,551.00
2023-05-22T02:10:23.476Z,549.00
2023-05-22T02:11:23.491Z,552.00
2023-05-22T02:12:23.497Z,558.00
2023-05-22T02:13:23.467Z,550.00
2023-05-22T02:14:23.505Z,554.00
2023-05-22T02:15:23.453Z,549.00
2023-05-22T02:16:23.518Z,551.00
2023-05-22T02:17:23.463Z,550.00
2023-05-22T02:18:23.468Z,552.00
2023-05-22T02:19:23.481Z,550.00
2023-05-22T02:20:23.461Z,549.00
2023-05-22T02:21:23.446Z,548.00
2023-05-22T02:22:23.444Z,552.00
2023-05-22T02:23:23.468Z,551.00
2023-05-22T02:24:23.471Z,553.00
2023-05-22T02:25:23.490Z,555.00
2023-05-22T02:26:23.491Z,557.00
2023-05-22T02:27:23.458Z,553.00
2023-05-22T02:28:23.507Z,556.00
2023-05-22T02:29:23.476Z,552.00
2023-05-22T02:30:23.466Z,549.00
2023-05-22T02:31:23.638Z,551.00
2023-05-22T02:32:23.477Z,555.00
2023-05-22T02:33:23.476Z,549.00
2023-05-22T02:34:23.505Z,552.00
2023-05-22T02:35:23.479Z,551.00
2023-05-22T02:36:23.521Z,549.00
2023-05-22T02:37:23.452Z,549.00
2023-05-22T02:38:23.543Z,550.00
2023-05-22T02:39:23.544Z,547.00
2023-05-22T02:40:23.479Z,550.00
2023-05-22T02:41:23.487Z,551.00
2023-05-22T02:42:23.447Z,550.00
2023-05-22T02:43:23.476Z,550.00
2023-05-22T02:44:23.502Z,549.00
2023-05-22T02:45:23.469Z,551.00
2023-05-22T02:46:23.474Z,549.00
2023-05-22T02:47:23.455Z,549.00
2023-05-22T02:48:23.502Z,548.00
2023-05-22T02:49:23.492Z,547.00
2023-05-22T02:50:23.517Z,547.00
2023-05-22T02:51:23.462Z,548.00
2023-05-22T02:52:23.497Z,548.00
2023-05-22T02:53:23.521Z,545.00
2023-05-22T02:54:23.463Z,552.00
2023-05-22T02:55:23.486Z,549.00
2023-05-22T02:56:23.515Z,546.00
2023-05-22T02:57:23.490Z,547.00
2023-05-22T02:58:23.500Z,552.00
2023-05-22T02:59:23.522Z,545.00
2023-05-22T03:00:23.520Z,542.00
2023-05-22T03:01:23.534Z,551.00
2023-05-22T03:02:23.596Z,546.00
2023-05-22T03:03:23.531Z,551.00
2023-05-22T03:04:23.544Z,546.00
2023-05-22T03:05:23.496Z,552.00
2023-05-22T03:06:23.565Z,549.00
2023-05-22T03:07:23.564Z,551.00
2023-05-22T03:08:23.515Z,552.00
2023-05-22T03:09:23.542Z,545.00
2023-05-22T03:10:23.583Z,554.00
2023-05-22T03:11:23.553Z,552.00
2023-05-22T03:12:23.535Z,550.00
2023-05-22T03:13:23.580Z,549.00
2023-05-22T03:14:23.618Z,550.00
2023-05-22T03:15:23.587Z,550.00
2023-05-22T03:16:23.601Z,546.00
2023-05-22T03:17:23.585Z,546.00
2023-05-22T03:18:25.916Z,552.00
2023-05-22T03:19:23.680Z,552.00
2023-05-22T03:20:23.594Z,549.00
2023-05-22T03:21:23.597Z,548.00
2023-05-22T03:22:23.596Z,557.00
2023-05-22T03:23:23.562Z,558.00
2023-05-22T03:24:23.575Z,552.00
2023-05-22T03:25:23.552Z,554.00
2023-05-22T03:26:23.549Z,549.00
2023-05-22T03:27:23.550Z,551.00
2023-05-22T03:28:23.566Z,552.00
2023-05-22T03:29:23.569Z,554.00
2023-05-22T03:30:23.512Z,550.00
2023-05-22T03:31:23.526Z,552.00
2023-05-22T03:32:23.581Z,544.00
2023-05-22T03:33:23.512Z,546.00
2023-05-22T03:34:23.531Z,547.00
2023-05-22T03:35:23.503Z,545.00
2023-05-22T03:36:23.504Z,547.00
2023-05-22T03:37:23.494Z,545.00
2023-05-22T03:38:23.489Z,544.00
2023-05-22T03:39:23.480Z,545.00
2023-05-22T03:40:23.495Z,545.00
2023-05-22T03:41:23.450Z,550.00
2023-05-22T03:42:23.560Z,545.00
2023-05-22T03:43:23.458Z,547.00
2023-05-22T03:44:23.455Z,546.00
2023-05-22T03:45:23.410Z,543.00
2023-05-22T03:46:23.476Z,549.00
2023-05-22T03:47:23.497Z,545.00
2023-05-22T03:48:23.445Z,548.00
2023-05-22T03:49:23.463Z,550.00
2023-05-22T03:50:23.401Z,551.00
2023-05-22T03:51:23.381Z,550.00
2023-05-22T03:52:23.387Z,550.00
2023-05-22T03:53:23.401Z,544.00
2023-05-22T03:54:23.371Z,545.00
2023-05-22T03:55:23.396Z,550.00
2023-05-22T03:56:23.387Z,548.00
2023-05-22T03:57:23.345Z,546.00
2023-05-22T03:58:23.352Z,549.00
2023-05-22T03:59:23.374Z,549.00
2023-05-22T04:00:25.186Z,541.00
2023-05-22T04:01:23.312Z,542.00
2023-05-22T04:02:23.388Z,543.00
2023-05-22T04:03:23.387Z,541.00
2023-05-22T04:04:23.282Z,537.00
2023-05-22T04:05:23.335Z,520.00
2023-05-22T04:06:23.297Z,511.00
2023-05-22T04:07:23.363Z,500.00
2023-05-22T04:08:23.262Z,500.00
2023-05-22T04:09:23.263Z,502.00
2023-05-22T04:10:23.283Z,500.00
2023-05-22T04:11:23.260Z,501.00
2023-05-22T04:12:23.254Z,500.00
2023-05-22T04:13:23.250Z,500.00
2023-05-22T04:14:23.296Z,500.00
2023-05-22T04:15:23.254Z,500.00
2023-05-22T04:16:23.282Z,500.00
2023-05-22T04:17:23.254Z,500.00
2023-05-22T04:18:23.231Z,507.00
2023-05-22T04:19:23.289Z,500.00
2023-05-22T04:20:23.187Z,500.00
2023-05-22T04:21:23.205Z,500.00
2023-05-22T04:22:23.217Z,500.00
2023-05-22T04:23:23.171Z,500.00
2023-05-22T04:24:23.169Z,500.00
2023-05-22T04:25:23.175Z,504.00
2023-05-22T04:26:23.149Z,502.00
2023-05-22T04:27:23.139Z,504.00
2023-05-22T04:28:23.160Z,502.00
2023-05-22T04:29:23.099Z,500.00
2023-05-22T04:30:23.095Z,500.00
2023-05-22T04:31:23.201Z,505.00
2023-05-22T04:32:23.130Z,504.00
2023-05-22T04:33:23.096Z,502.00
2023-05-22T04:34:23.094Z,508.00
2023-05-22T04:35:23.096Z,507.00
2023-05-22T04:36:23.081Z,500.00
2023-05-22T04:37:23.111Z,507.00
2023-05-22T04:38:23.058Z,513.00
2023-05-22T04:39:23.072Z,506.00
2023-05-22T04:40:23.038Z,513.00
2023-05-22T04:41:23.046Z,509.00
2023-05-22T04:42:23.094Z,507.00
2023-05-22T04:43:23.050Z,515.00
2023-05-22T04:44:23.074Z,507.00
2023-05-22T04:45:22.979Z,508.00
2023-05-22T04:46:23.046Z,508.00
2023-05-22T04:47:23.100Z,512.00
2023-05-22T04:48:23.108Z,513.00
2023-05-22T04:49:23.137Z,510.00
2023-05-22T04:50:23.223Z,512.00
2023-05-22T04:51:23.285Z,511.00
2023-05-22T04:52:23.375Z,519.00
2023-05-22T04:53:23.357Z,515.00
2023-05-22T04:54:23.391Z,514.00
2023-05-22T04:55:23.440Z,524.00
2023-05-22T04:56:35.353Z,516.00
2023-05-22T04:57:24.476Z,517.00
2023-05-22T04:58:23.454Z,518.00
2023-05-22T04:59:23.427Z,520.00
2023-05-22T05:00:23.471Z,522.00
2023-05-22T05:01:23.461Z,528.00
2023-05-22T05:02:23.479Z,528.00
2023-05-22T05:03:23.502Z,526.00
2023-05-22T05:04:23.424Z,527.00
2023-05-22T05:05:23.504Z,529.00
2023-05-22T05:06:23.392Z,528.00
2023-05-22T05:07:23.404Z,531.00
2023-05-22T05:08:23.413Z,529.00
2023-05-22T05:09:23.441Z,532.00
2023-05-22T05:10:23.474Z,532.00
2023-05-22T05:11:23.540Z,531.00
2023-05-22T05:12:23.578Z,543.00
2023-05-22T05:13:23.660Z,537.00
2023-05-22T05:14:23.685Z,541.00
2023-05-22T05:15:23.734Z,532.00
2023-05-22T05:16:23.853Z,530.00
2023-05-22T05:17:23.834Z,538.00
2023-05-22T05:18:23.890Z,537.00
2023-05-22T05:19:24.084Z,534.00
2023-05-22T05:20:24.009Z,540.00
2023-05-22T05:21:24.083Z,541.00
2023-05-22T05:22:24.138Z,539.00
2023-05-22T05:23:24.172Z,535.00
2023-05-22T05:24:24.193Z,537.00
2023-05-22T05:25:24.259Z,539.00
2023-05-22T05:26:24.295Z,537.00
2023-05-22T05:27:24.361Z,535.00
2023-05-22T05:28:24.394Z,534.00
2023-05-22T05:29:24.484Z,533.00
2023-05-22T05:30:24.521Z,535.00
2023-05-22T05:31:24.574Z,527.00
2023-05-22T05:32:24.803Z,538.00
2023-05-22T05:33:24.667Z,541.00
2023-05-22T05:34:24.743Z,502.00
2023-05-22T05:35:24.758Z,501.00
2023-05-22T05:36:24.780Z,501.00
2023-05-22T05:37:24.803Z,500.00
2023-05-22T05:38:24.870Z,500.00
2023-05-22T05:39:24.923Z,500.00
2023-05-22T05:40:24.952Z,500.00
2023-05-22T05:41:24.974Z,500.00
2023-05-22T05:42:24.957Z,501.00
2023-05-22T05:43:24.959Z,504.00
2023-05-22T05:44:25.003Z,501.00
2023-05-22T05:45:25.049Z,508.00
2023-05-22T05:46:25.085Z,505.00
2023-05-22T05:47:25.168Z,520.00
2023-05-22T05:48:25.124Z,546.00
2023-05-22T05:49:25.194Z,565.00
2023-05-22T05:50:25.217Z,608.00
2023-05-22T05:51:25.268Z,619.00
2023-05-22T05:52:25.318Z,633.00
2023-05-22T05:53:25.303Z,643.00
2023-05-22T05:54:25.302Z,649.00
2023-05-22T05:55:25.279Z,652.00
2023-05-22T05:56:25.318Z,648.00
2023-05-22T05:57:25.412Z,650.00
2023-05-22T05:58:25.458Z,656.00
2023-05-22T05:59:25.518Z,657.00
2023-05-22T06:00:25.552Z,661.00
2023-05-22T06:01:25.603Z,658.00
2023-05-22T06:02:25.740Z,659.00
2023-05-22T06:03:25.792Z,657.00
2023-05-22T06:04:25.760Z,660.00
2023-05-22T06:05:25.738Z,659.00
2023-05-22T06:06:25.776Z,670.00
2023-05-22T06:07:25.797Z,664.00
2023-05-22T06:08:25.785Z,660.00
2023-05-22T06:09:25.795Z,656.00
2023-05-22T06:10:25.818Z,674.00
2023-05-22T06:11:25.819Z,655.00
2023-05-22T06:12:25.806Z,664.00
2023-05-22T06:13:25.807Z,658.00
2023-05-22T06:14:25.822Z,666.00
2023-05-22T06:15:25.798Z,661.00
2023-05-22T06:16:25.849Z,670.00
2023-05-22T06:17:25.850Z,656.00
2023-05-22T06:18:25.840Z,658.00
2023-05-22T06:19:25.925Z,658.00
2023-05-22T06:20:25.980Z,661.00
2023-05-22T06:21:25.998Z,664.00
2023-05-22T06:22:25.975Z,654.00
2023-05-22T06:23:25.975Z,654.00
2023-05-22T06:24:26.039Z,639.00
2023-05-22T06:25:26.059Z,646.00
2023-05-22T06:26:26.069Z,645.00
2023-05-22T06:27:26.273Z,636.00
2023-05-22T06:28:26.237Z,642.00
2023-05-22T06:29:26.274Z,637.00
2023-05-22T06:30:38.864Z,632.00
2023-05-22T06:31:27.321Z,632.00
2023-05-22T06:32:26.372Z,633.00
2023-05-22T06:33:26.329Z,636.00
2023-05-22T06:34:26.417Z,637.00
2023-05-22T06:35:26.285Z,634.00
2023-05-22T06:36:26.283Z,641.00
2023-05-22T06:37:26.274Z,641.00
2023-05-22T06:38:26.345Z,649.00
2023-05-22T06:39:26.315Z,664.00
2023-05-22T06:40:26.342Z,674.00
2023-05-22T06:41:26.405Z,669.00
2023-05-22T06:42:26.466Z,700.00
2023-05-22T06:43:26.536Z,695.00
2023-05-22T06:44:26.553Z,690.00
2023-05-22T06:45:26.658Z,670.00
2023-05-22T06:46:26.692Z,657.00
2023-05-22T06:47:26.733Z,655.00
2023-05-22T06:48:26.781Z,646.00
2023-05-22T06:49:26.810Z,636.00
2023-05-22T06:50:26.831Z,636.00
2023-05-22T06:51:26.888Z,639.00
2023-05-22T06:52:26.919Z,617.00
2023-05-22T06:53:26.935Z,618.00
2023-05-22T06:54:26.923Z,609.00
2023-05-22T06:55:26.914Z,589.00
2023-05-22T06:56:26.898Z,580.00
2023-05-22T06:57:26.914Z,560.00
2023-05-22T06:58:26.951Z,549.00
2023-05-22T06:59:26.957Z,536.00
2023-05-22T07:00:26.991Z,514.00
2023-05-22T07:01:27.120Z,506.00
2023-05-22T07:02:27.025Z,500.00
2023-05-22T07:03:26.996Z,505.00
2023-05-22T07:04:26.990Z,508.00
2023-05-22T07:05:27.035Z,512.00
2023-05-22T07:06:27.014Z,518.00
2023-05-22T07:07:27.043Z,519.00
2023-05-22T07:08:29.714Z,522.00
2023-05-22T07:09:27.049Z,526.00
2023-05-22T07:10:27.099Z,525.00
2023-05-22T07:11:27.074Z,519.00
2023-05-22T07:12:27.037Z,518.00
2023-05-22T07:13:27.036Z,512.00
2023-05-22T07:14:27.057Z,514.00
2023-05-22T07:15:27.008Z,509.00
2023-05-22T07:16:27.034Z,509.00
2023-05-22T07:17:27.034Z,505.00
2023-05-22T07:18:27.016Z,503.00
2023-05-22T07:19:27.050Z,508.00
2023-05-22T07:20:26.983Z,499.00
2023-05-22T07:21:27.017Z,500.00
2023-05-22T07:22:27.001Z,503.00
2023-05-22T07:23:26.933Z,506.00
2023-05-22T07:24:26.970Z,504.00
2023-05-22T07:25:26.952Z,505.00
2023-05-22T07:26:27.525Z,501.00
2023-05-22T07:27:26.947Z,502.00
2023-05-22T07:28:27.277Z,500.00
2023-05-22T07:29:26.942Z,507.00
2023-05-22T07:30:26.958Z,503.00
2023-05-22T07:31:26.987Z,513.00
2023-05-22T07:32:26.907Z,513.00
2023-05-22T07:33:26.896Z,515.00
2023-05-22T07:34:27.906Z,517.00
2023-05-22T07:35:26.899Z,537.00
2023-05-22T07:36:26.893Z,515.00
2023-05-22T07:37:26.899Z,500.00
2023-05-22T07:38:26.858Z,504.00
2023-05-22T07:39:26.868Z,507.00
2023-05-22T07:40:26.879Z,503.00
2023-05-22T07:41:26.872Z,505.00
2023-05-22T07:42:26.831Z,517.00
2023-05-22T07:43:26.835Z,519.00
2023-05-22T07:44:26.828Z,524.00
2023-05-22T07:45:26.850Z,528.00
2023-05-22T07:46:26.869Z,541.00
2023-05-22T07:47:26.859Z,538.00
2023-05-22T07:48:26.833Z,526.00
2023-05-22T07:49:26.804Z,536.00
2023-05-22T07:50:26.868Z,556.00
2023-05-22T07:51:26.797Z,561.00
2023-05-22T07:52:26.753Z,557.00
2023-05-22T07:53:26.830Z,560.00
2023-05-22T07:54:26.761Z,555.00
2023-05-22T07:55:26.759Z,548.00
2023-05-22T07:56:26.762Z,542.00
2023-05-22T07:57:26.720Z,552.00
2023-05-22T07:58:26.821Z,555.00
2023-05-22T07:59:26.730Z,543.00
2023-05-22T08:00:26.734Z,521.00
2023-05-22T08:01:26.739Z,526.00
2023-05-22T08:02:26.833Z,515.00
2023-05-22T08:03:26.920Z,517.00
2023-05-22T08:04:27.022Z,517.00
2023-05-22T08:05:26.944Z,516.00
2023-05-22T08:06:27.017Z,500.00
2023-05-22T08:07:27.004Z,503.00
2023-05-22T08:08:27.493Z,501.00
2023-05-22T08:09:27.090Z,500.00
2023-05-22T08:10:30.049Z,507.00
2023-05-22T08:11:28.140Z,507.00
2023-05-22T08:12:27.085Z,510.00
2023-05-22T08:13:27.146Z,512.00
2023-05-22T08:14:27.185Z,514.00
2023-05-22T08:15:27.092Z,521.00
2023-05-22T08:16:27.120Z,539.00
2023-05-22T08:17:27.100Z,525.00
2023-05-22T08:18:27.088Z,528.00
2023-05-22T08:19:27.155Z,520.00
2023-05-22T08:20:27.219Z,532.00
2023-05-22T08:21:27.152Z,540.00
2023-05-22T08:22:27.202Z,539.00
2023-05-22T08:23:27.176Z,541.00
2023-05-22T08:24:27.216Z,513.00
2023-05-22T08:25:27.258Z,501.00
2023-05-22T08:26:27.283Z,507.00
2023-05-22T08:27:27.343Z,500.00
2023-05-22T08:28:27.398Z,500.00
2023-05-22T08:29:27.382Z,500.00
2023-05-22T08:30:27.581Z,500.00
2023-05-22T08:31:27.501Z,500.00
2023-05-22T08:32:29.261Z,500.00
2023-05-22T08:33:27.491Z,500.00
2023-05-22T08:34:27.489Z,501.00
2023-05-22T08:35:27.489Z,500.00
2023-05-22T08:36:27.525Z,500.00
2023-05-22T08:37:27.511Z,500.00
2023-05-22T08:38:27.468Z,500.00
2023-05-22T08:39:27.442Z,500.00
2023-05-22T08:40:27.463Z,500.00
2023-05-22T08:41:27.855Z,500.00
2023-05-22T08:42:27.447Z,503.00
2023-05-22T08:43:27.420Z,500.00
2023-05-22T08:44:27.455Z,504.00
2023-05-22T08:45:27.397Z,509.00
2023-05-22T08:46:27.394Z,518.00
2023-05-22T08:47:27.442Z,533.00
2023-05-22T08:48:27.377Z,543.00
2023-05-22T08:49:27.397Z,545.00
2023-05-22T08:50:27.384Z,531.00
2023-05-22T08:51:27.359Z,538.00
2023-05-22T08:52:27.355Z,535.00
2023-05-22T08:53:27.350Z,547.00
2023-05-22T08:54:27.370Z,546.00
2023-05-22T08:55:27.368Z,542.00
2023-05-22T08:56:29.503Z,535.00
2023-05-22T08:57:27.294Z,523.00
2023-05-22T08:58:27.363Z,525.00
2023-05-22T08:59:27.410Z,530.00
2023-05-22T09:00:27.374Z,550.00
2023-05-22T09:01:27.452Z,560.00
2023-05-22T09:02:27.547Z,573.00
2023-05-22T09:03:27.487Z,587.00
2023-05-22T09:04:27.404Z,612.00
2023-05-22T09:05:27.389Z,601.00
2023-05-22T09:06:27.389Z,610.00
2023-05-22T09:07:27.453Z,623.00
2023-05-22T09:08:27.477Z,608.00
2023-05-22T09:09:27.485Z,595.00
2023-05-22T09:10:27.568Z,587.00
2023-05-22T09:11:27.606Z,581.00
2023-05-22T09:12:27.643Z,577.00
2023-05-22T09:13:27.725Z,577.00
2023-05-22T09:14:27.965Z,587.00
2023-05-22T09:15:27.829Z,564.00
2023-05-22T09:16:27.942Z,554.00
2023-05-22T09:17:28.021Z,550.00
2023-05-22T09:18:28.043Z,551.00
2023-05-22T09:19:28.087Z,564.00
2023-05-22T09:20:28.151Z,565.00
2023-05-22T09:21:30.631Z,562.00
2023-05-22T09:22:28.200Z,557.00
2023-05-22T09:23:28.189Z,548.00
2023-05-22T09:24:28.196Z,547.00
2023-05-22T09:25:28.180Z,551.00
2023-05-22T09:26:28.169Z,566.00
2023-05-22T09:27:28.161Z,551.00
2023-05-22T09:28:28.169Z,548.00
2023-05-22T09:29:28.148Z,543.00
2023-05-22T09:30:28.166Z,583.00
2023-05-22T09:31:28.140Z,583.00
2023-05-22T09:32:28.123Z,594.00
2023-05-22T09:33:28.099Z,557.00
2023-05-22T09:34:28.349Z,412.00
2023-05-22T09:35:28.123Z,400.00
2023-05-22T09:36:28.125Z,400.00
2023-05-22T09:37:28.132Z,400.00
2023-05-22T09:38:28.099Z,400.00
2023-05-22T09:39:28.077Z,400.00
2023-05-22T09:40:28.103Z,400.00
2023-05-22T09:41:28.062Z,400.00
2023-05-22T09:42:28.034Z,400.00
2023-05-22T09:43:28.079Z,463.00
2023-05-22T09:44:28.077Z,516.00
2023-05-22T09:45:28.082Z,530.00
2023-05-22T09:46:28.061Z,519.00
2023-05-22T09:47:28.038Z,537.00
2023-05-22T09:48:28.005Z,550.00
2023-05-22T09:49:28.011Z,571.00
2023-05-22T09:50:28.095Z,603.00
2023-05-22T09:51:28.032Z,630.00
2023-05-22T09:52:27.990Z,602.00
2023-05-22T09:53:28.053Z,603.00
2023-05-22T09:54:27.979Z,596.00
2023-05-22T09:55:28.397Z,598.00
2023-05-22T09:56:38.486Z,615.00
2023-05-22T09:57:28.929Z,616.00
2023-05-22T09:58:27.970Z,618.00
2023-05-22T09:59:28.396Z,621.00
2023-05-22T10:00:27.937Z,629.00
2023-05-22T10:01:27.940Z,658.00
2023-05-22T10:02:27.958Z,658.00
2023-05-22T10:03:27.903Z,657.00
2023-05-22T10:04:28.002Z,683.00
2023-05-22T10:05:27.905Z,675.00
2023-05-22T10:06:27.929Z,694.00
2023-05-22T10:07:27.885Z,728.00
2023-05-22T10:08:27.905Z,737.00
2023-05-22T10:09:27.879Z,804.00
2023-05-22T10:10:27.894Z,835.00
2023-05-22T10:11:27.864Z,873.00
2023-05-22T10:12:27.859Z,896.00
2023-05-22T10:13:27.877Z,970.00
2023-05-22T10:14:28.905Z,1000.00
2023-05-22T10:15:28.392Z,1009.00
2023-05-22T10:16:27.898Z,1054.00
2023-05-22T10:17:27.890Z,1085.00
2023-05-22T10:18:27.879Z,1069.00
2023-05-22T10:19:27.980Z,1099.00
2023-05-22T10:20:27.925Z,1139.00
2023-05-22T10:21:27.872Z,1117.00
2023-05-22T10:22:27.990Z,1145.00
2023-05-22T10:23:27.889Z,1145.00
2023-05-22T10:24:27.898Z,1196.00
2023-05-22T10:25:27.952Z,1227.00
2023-05-22T10:26:28.052Z,1255.00
2023-05-22T10:27:28.000Z,1278.00
2023-05-22T10:28:27.980Z,947.00
2023-05-22T10:29:27.913Z,863.00
2023-05-22T10:30:27.909Z,657.00
2023-05-22T10:31:27.942Z,598.00
2023-05-22T10:32:27.950Z,558.00
2023-05-22T10:33:27.985Z,526.00
2023-05-22T10:34:27.899Z,500.00
2023-05-22T10:35:27.916Z,478.00
2023-05-22T10:36:27.953Z,492.00
2023-05-22T10:37:27.904Z,505.00
2023-05-22T10:38:28.004Z,498.00
2023-05-22T10:39:27.887Z,500.00
2023-05-22T10:40:27.943Z,500.00
2023-05-22T10:41:27.921Z,503.00
2023-05-22T10:42:27.949Z,515.00
2023-05-22T10:43:27.941Z,522.00
2023-05-22T10:44:27.926Z,495.00
2023-05-22T10:45:27.992Z,441.00
2023-05-22T10:46:28.030Z,459.00
2023-05-22T10:47:28.006Z,455.00
2023-05-22T10:48:27.942Z,484.00
2023-05-22T10:49:28.011Z,499.00
2023-05-22T10:50:28.012Z,503.00
2023-05-22T10:51:28.008Z,489.00
2023-05-22T10:52:28.003Z,499.00
2023-05-22T10:53:28.119Z,500.00
2023-05-22T10:54:28.112Z,516.00
2023-05-22T10:55:28.060Z,501.00
2023-05-22T10:56:28.023Z,515.00
2023-05-22T10:57:28.038Z,536.00
2023-05-22T10:58:28.032Z,541.00
2023-05-22T10:59:28.044Z,562.00
2023-05-22T11:00:28.085Z,577.00
2023-05-22T11:01:28.192Z,589.00
2023-05-22T11:02:28.293Z,576.00
2023-05-22T11:03:28.356Z,565.00
2023-05-22T11:04:28.346Z,546.00
2023-05-22T11:05:28.385Z,572.00
2023-05-22T11:06:28.393Z,570.00
2023-05-22T11:07:28.478Z,560.00
2023-05-22T11:08:28.558Z,567.00
2023-05-22T11:09:28.577Z,594.00
2023-05-22T11:10:28.707Z,608.00
2023-05-22T11:11:28.680Z,651.00
2023-05-22T11:12:28.905Z,748.00
2023-05-22T11:13:29.503Z,867.00
2023-05-22T11:14:28.790Z,983.00
2023-05-22T11:15:28.805Z,1043.00
2023-05-22T11:16:28.855Z,1142.00
2023-05-22T11:17:28.908Z,1226.00
2023-05-22T11:18:28.894Z,1293.00
2023-05-22T11:19:28.953Z,1375.00
2023-05-22T11:20:28.958Z,1424.00
2023-05-22T11:21:28.959Z,1517.00
2023-05-22T11:22:28.943Z,1644.00
2023-05-22T11:23:28.993Z,1691.00
2023-05-22T11:24:29.023Z,1746.00
2023-05-22T11:25:29.031Z,1743.00
2023-05-22T11:26:29.160Z,1774.00
2023-05-22T11:27:29.109Z,1769.00
2023-05-22T11:28:29.149Z,1787.00
2023-05-22T11:29:29.157Z,1824.00
2023-05-22T11:30:29.224Z,1814.00
2023-05-22T11:31:29.250Z,1811.00
2023-05-22T11:32:29.244Z,1810.00
2023-05-22T11:33:29.340Z,1790.00
2023-05-22T11:34:29.305Z,1771.00
2023-05-22T11:35:29.365Z,1741.00
2023-05-22T11:36:29.364Z,1727.00
2023-05-22T11:37:29.405Z,1695.00
2023-05-22T11:38:29.512Z,1700.00
2023-05-22T11:39:29.497Z,1670.00
2023-05-22T11:40:29.622Z,1662.00
2023-05-22T11:41:31.308Z,1645.00
2023-05-22T11:42:29.645Z,1605.00
2023-05-22T11:43:29.556Z,1563.00
2023-05-22T11:44:29.525Z,1563.00
2023-05-22T11:45:29.520Z,1557.00
2023-05-22T11:46:29.535Z,1545.00
2023-05-22T11:47:29.558Z,1552.00
2023-05-22T11:48:29.510Z,1517.00
2023-05-22T11:49:29.566Z,1488.00
2023-05-22T11:50:41.584Z,1474.00
2023-05-22T11:51:30.558Z,1451.00
2023-05-22T11:52:29.470Z,1452.00
2023-05-22T11:53:29.507Z,1407.00
2023-05-22T11:54:29.441Z,1401.00
2023-05-22T11:55:29.421Z,1380.00
2023-05-22T11:56:29.430Z,1354.00
2023-05-22T11:57:29.432Z,1320.00
2023-05-22T11:58:29.548Z,1303.00
2023-05-22T11:59:29.452Z,1311.00
2023-05-22T12:00:29.446Z,1303.00
2023-05-22T12:01:29.419Z,1272.00
2023-05-22T12:02:29.567Z,1248.00
2023-05-22T12:03:29.618Z,1240.00
2023-05-22T12:04:29.594Z,1264.00
2023-05-22T12:05:29.668Z,1251.00
2023-05-22T12:06:29.739Z,1209.00
2023-05-22T12:07:29.710Z,1259.00
2023-05-22T12:08:29.779Z,1329.00
2023-05-22T12:09:29.833Z,1459.00
2023-05-22T12:10:29.855Z,1560.00
2023-05-22T12:11:29.911Z,1615.00
2023-05-22T12:12:29.948Z,1712.00
2023-05-22T12:13:30.021Z,1895.00
2023-05-22T12:14:30.153Z,1995.00
2023-05-22T12:15:30.033Z,2044.00
2023-05-22T12:16:30.078Z,2144.00
2023-05-22T12:17:30.110Z,2326.00
2023-05-22T12:18:30.151Z,2442.00
2023-05-22T12:19:30.221Z,2559.00
2023-05-22T12:20:30.130Z,2652.00
2023-05-22T12:21:30.179Z,2759.00
2023-05-22T12:22:30.193Z,2842.00
2023-05-22T12:23:30.186Z,2952.00
2023-05-22T12:24:30.225Z,3025.00
2023-05-22T12:25:30.234Z,3070.00